Time;durP1;ratioP1;P1;durP2;ratioP2;P2;SDS_P1;SDS_P2;PMS_P1;PMS_P2;Temp;Humidity;BMP_temperature;BMP_pressure;BME280_temperature;BME280_humidity;BME280_pressure;Samples;Min_cycle;Max_cycle;Signal;HPM_P1;HPM_P2
2022/08/23 00:01:21;;;;;;;12.33;4.90;;;;;;;-145.18;100.00;46558.81;4990994;28;20042;-76
2022/08/23 00:03:48;;;;;;;9.90;5.10;;;;;;;-145.18;100.00;46543.19;4992628;28;20022;-75
2022/08/23 00:06:13;;;;;;;11.20;4.80;;;;;;;-145.18;100.00;46549.06;4991997;28;20546;-76
2022/08/23 00:08:40;;;;;;;14.13;5.73;;;;;;;-145.18;100.00;46543.19;4991743;28;20033;-76
2022/08/23 00:11:22;;;;;;;13.73;5.50;;;;;;;-145.18;100.00;46549.06;4974436;28;20427;-76
2022/08/23 00:13:48;;;;;;;15.13;5.93;;;;;;;-145.18;100.00;46552.97;4991765;28;20077;-75
2022/08/23 00:16:14;;;;;;;10.80;5.37;;;;;;;-145.18;100.00;46545.16;4991720;28;20193;-75
2022/08/23 00:18:40;;;;;;;12.10;6.00;;;;;;;-145.18;100.00;46545.16;4992151;28;20084;-76
2022/08/23 00:21:05;;;;;;;9.27;5.93;;;;;;;-145.18;100.00;46551.00;4991842;28;20052;-75
2022/08/23 00:23:31;;;;;;;8.47;5.73;;;;;;;-145.18;100.00;46541.25;4991528;28;20551;-75
2022/08/23 00:25:56;;;;;;;10.60;5.70;;;;;;;-145.18;100.00;46549.06;4991974;28;20038;-75
2022/08/23 00:28:21;;;;;;;10.23;5.73;;;;;;;-145.18;100.00;46551.00;4991985;28;20602;-75
2022/08/23 00:30:47;;;;;;;11.27;5.73;;;;;;;-145.18;100.00;46535.38;4991985;28;20039;-75
2022/08/23 00:33:12;;;;;;;13.20;5.70;;;;;;;-145.18;100.00;46547.09;4991779;28;20041;-75
2022/08/23 00:35:38;;;;;;;12.97;6.47;;;;;;;-145.18;100.00;46549.06;4991600;28;20042;-75
2022/08/23 00:38:03;;;;;;;13.00;5.83;;;;;;;-145.18;100.00;46547.09;4991424;28;20502;-77
2022/08/23 00:40:29;;;;;;;14.63;6.53;;;;;;;-145.18;100.00;46547.09;4991926;28;20035;-77
2022/08/23 00:49:15;;;;;;;12.63;6.40;;;;;;;-145.18;100.00;46662.34;4977459;28;20038;-75
2022/08/23 00:51:50;;;;;;;13.57;6.80;;;;;;;-145.18;100.00;46658.44;4991643;28;20049;-78
2022/08/23 00:54:16;;;;;;;11.40;6.70;;;;;;;-145.18;100.00;46656.50;4991720;28;20383;-77
2022/08/23 00:56:42;;;;;;;12.37;7.30;;;;;;;-145.18;100.00;46652.59;4991585;28;20117;-78
2022/08/23 00:59:08;;;;;;;15.73;7.10;;;;;;;-145.18;100.00;46652.59;4991557;28;20415;-77
2022/08/23 01:01:34;;;;;;;14.30;7.40;;;;;;;-145.18;100.00;46654.53;4991380;28;20038;-76
2022/08/23 01:04:00;;;;;;;14.67;7.67;;;;;;;-145.18;100.00;46650.63;4991298;28;20041;-76
2022/08/23 01:06:31;;;;;;;13.80;7.50;;;;;;;-145.18;100.00;46648.69;4991200;28;20031;-76
2022/08/23 01:09:12;;;;;;;11.33;6.73;;;;;;;-145.18;100.00;46650.63;4991468;28;20082;-77
2022/08/23 01:12:24;;;;;;;15.97;7.93;;;;;;;-145.18;100.00;46640.88;4988452;28;20037;-76
2022/08/23 01:15:19;;;;;;;14.90;8.47;;;;;;;-145.18;100.00;46640.88;4976103;28;20034;-76
2022/08/23 01:17:52;;;;;;;13.57;8.90;;;;;;;-145.18;100.00;46642.81;4984909;28;20054;-76
2022/08/23 01:20:23;;;;;;;16.93;8.40;;;;;;;-145.18;100.00;46644.78;4990960;28;20165;-77
2022/08/23 01:23:00;;;;;;;19.47;9.03;;;;;;;-145.18;100.00;46677.97;4989944;28;20391;-76
2022/08/23 01:25:29;;;;;;;17.83;9.97;;;;;;;-145.18;100.00;46642.81;4991208;28;20041;-76
2022/08/23 01:27:56;;;;;;;19.07;9.57;;;;;;;-145.18;100.00;46644.78;4990938;28;20034;-76
2022/08/23 01:30:24;;;;;;;14.03;8.87;;;;;;;-145.18;100.00;46642.81;4990881;28;20116;-76
2022/08/23 01:32:57;;;;;;;18.27;8.90;;;;;;;-145.18;100.00;46642.81;4991338;28;20152;-76
2022/08/23 01:35:46;;;;;;;14.40;8.73;;;;;;;-145.18;100.00;46677.97;4991347;28;20030;-76
2022/08/23 01:38:12;;;;;;;16.67;8.37;;;;;;;-145.18;100.00;46640.88;4990854;28;20038;-76
2022/08/23 01:40:38;;;;;;;16.20;8.77;;;;;;;-145.18;100.00;46677.97;4990804;28;20050;-76
2022/08/23 01:43:05;;;;;;;14.03;9.47;;;;;;;-145.18;100.00;46640.88;4990531;28;20030;-76
2022/08/23 01:45:31;;;;;;;13.83;8.70;;;;;;;-145.18;100.00;46644.78;4990992;28;20057;-76
2022/08/23 01:47:57;;;;;;;17.57;8.20;;;;;;;-145.18;100.00;46640.88;4990613;28;20117;-76
2022/08/23 01:50:24;;;;;;;15.63;8.53;;;;;;;-145.18;100.00;46646.72;4990858;28;20133;-76
2022/08/23 01:52:49;;;;;;;11.83;8.57;;;;;;;-145.18;100.00;46644.78;4990617;28;20030;-77
2022/08/23 01:55:16;;;;;;;13.00;8.17;;;;;;;-145.18;100.00;46644.78;4990447;28;20033;-77
2022/08/23 01:57:43;;;;;;;14.37;7.70;;;;;;;-145.18;100.00;46644.78;4990334;28;20045;-76
2022/08/23 02:04:16;;;;;;;14.73;7.60;;;;;;;-145.18;100.00;46646.72;3537421;23;20107;-77
2022/08/23 02:12:02;;;;;;;13.33;7.83;;;;;;;-145.18;100.00;46644.78;5033898;28;20049;-77
2022/08/23 02:15:58;;;;;;;15.67;7.70;;;;;;;-145.18;100.00;46648.69;5069549;28;20031;-77
2022/08/23 02:19:50;;;;;;;10.30;7.63;;;;;;;-145.18;100.00;46648.69;5069163;28;20028;-77
2022/08/23 02:23:47;;;;;;;14.50;7.77;;;;;;;-145.18;100.00;46646.72;5069881;28;20024;-77
2022/08/23 02:27:41;;;;;;;17.10;8.00;;;;;;;-145.18;100.00;46646.72;5033806;28;20025;-76
2022/08/23 02:31:34;;;;;;;10.80;7.40;;;;;;;-145.18;100.00;46652.59;5034193;28;20025;-75
2022/08/23 02:35:32;;;;;;;16.60;7.83;;;;;;;-145.18;100.00;46654.53;5033704;28;20029;-76
2022/08/23 02:39:25;;;;;;;12.37;7.57;;;;;;;-145.18;100.00;46644.78;5033480;28;20029;-75
2022/08/23 02:43:22;;;;;;;12.83;7.77;;;;;;;-145.18;100.00;46650.63;5033914;28;20034;-75
2022/08/23 02:47:19;;;;;;;15.30;7.90;;;;;;;-145.18;100.00;46650.63;5040912;28;20108;-75
2022/08/23 02:51:12;;;;;;;13.13;7.60;;;;;;;-145.18;100.00;46648.69;5033511;28;20029;-75
2022/08/23 02:55:09;;;;;;;17.90;8.37;;;;;;;-145.18;100.00;46648.69;5033322;28;20025;-75
2022/08/23 02:59:06;;;;;;;16.63;9.43;;;;;;;-145.18;100.00;46646.72;5033086;28;20057;-75
